createdAt,value
2022-07-30T00:01:13.900Z,14.88
2022-07-30T00:03:40.515Z,12.65
2022-07-30T00:06:07.095Z,19.30
2022-07-30T00:08:33.998Z,15.77
2022-07-30T00:11:00.534Z,17.45
2022-07-30T00:13:27.138Z,16.63
2022-07-30T00:15:53.651Z,18.95
2022-07-30T00:18:20.148Z,16.10
2022-07-30T00:20:48.845Z,12.80
2022-07-30T00:23:15.610Z,14.82
2022-07-30T00:25:42.112Z,17.17
2022-07-30T00:28:08.594Z,11.13
2022-07-30T00:30:35.232Z,15.70
2022-07-30T00:33:02.170Z,12.90
2022-07-30T00:35:28.937Z,16.70
2022-07-30T00:37:55.489Z,16.33
2022-07-30T00:40:22.152Z,14.30
2022-07-30T00:42:48.910Z,19.23
2022-07-30T00:45:17.262Z,19.40
2022-07-30T00:47:44.211Z,19.73
2022-07-30T00:50:12.438Z,16.63
2022-07-30T00:52:39.482Z,18.80
2022-07-30T00:55:09.365Z,16.27
2022-07-30T00:57:36.208Z,14.63
2022-07-30T01:00:05.194Z,15.35
2022-07-30T01:02:31.714Z,16.17
2022-07-30T01:04:58.269Z,16.63
2022-07-30T01:07:27.188Z,16.60
2022-07-30T01:09:53.924Z,15.43
2022-07-30T01:12:23.219Z,12.75
2022-07-30T01:14:49.851Z,15.55
2022-07-30T01:17:16.485Z,14.63
2022-07-30T01:19:53.767Z,14.00
2022-07-30T01:22:30.241Z,17.05
2022-07-30T01:25:25.604Z,18.70
2022-07-30T01:27:58.737Z,15.32
2022-07-30T01:30:29.898Z,17.23
2022-07-30T01:32:58.845Z,16.63
2022-07-30T01:35:28.046Z,14.73
2022-07-30T01:37:56.680Z,20.60
2022-07-30T01:40:25.266Z,19.40
2022-07-30T01:42:54.984Z,17.87
2022-07-30T01:45:24.284Z,19.85
2022-07-30T01:47:55.832Z,18.55
2022-07-30T01:50:22.875Z,16.10
2022-07-30T01:52:52.711Z,17.35
2022-07-30T01:55:25.830Z,18.40
2022-07-30T01:57:54.505Z,24.27
2022-07-30T02:00:22.665Z,20.87
2022-07-30T02:02:49.153Z,24.60
2022-07-30T02:05:15.835Z,20.17
2022-07-30T02:08:04.836Z,19.25
2022-07-30T02:10:36.529Z,18.00
2022-07-30T02:13:06.626Z,22.45
2022-07-30T02:15:43.326Z,15.98
2022-07-30T02:18:23.856Z,21.25
2022-07-30T02:21:07.600Z,15.02
2022-07-30T02:23:40.802Z,18.67
2022-07-30T02:26:09.995Z,16.38
2022-07-30T02:28:39.971Z,17.75
2022-07-30T02:31:17.519Z,24.15
2022-07-30T02:33:49.461Z,22.67
2022-07-30T02:36:18.628Z,24.38
2022-07-30T02:41:13.609Z,17.98
2022-07-30T02:43:42.351Z,21.25
2022-07-30T02:46:11.715Z,15.23
2022-07-30T02:51:08.636Z,16.65
2022-07-30T02:53:37.542Z,19.53
2022-07-30T02:56:07.001Z,15.00
2022-07-30T03:01:03.223Z,12.80
2022-07-30T03:03:31.157Z,12.90
2022-07-30T03:05:59.548Z,12.48
2022-07-30T03:08:27.931Z,13.98
2022-07-30T03:10:56.206Z,12.73
2022-07-30T03:13:24.234Z,16.15
2022-07-30T03:15:52.850Z,14.93
2022-07-30T03:18:20.310Z,13.60
2022-07-30T03:20:50.385Z,15.52
2022-07-30T03:23:19.409Z,12.20
2022-07-30T03:25:50.955Z,13.75
2022-07-30T03:28:23.585Z,13.45
2022-07-30T03:30:52.475Z,14.75
2022-07-30T03:33:20.313Z,16.58
2022-07-30T03:35:49.278Z,12.15
2022-07-30T03:38:16.546Z,13.50
2022-07-30T03:40:44.671Z,13.32
2022-07-30T03:43:32.533Z,14.05
2022-07-30T03:46:00.988Z,18.50
2022-07-30T03:48:28.160Z,15.23
2022-07-30T03:50:55.619Z,16.63
2022-07-30T03:53:25.018Z,13.63
2022-07-30T03:55:53.194Z,15.57
2022-07-30T03:58:19.836Z,17.40
2022-07-30T04:00:51.030Z,15.77
2022-07-30T04:03:28.862Z,18.75
2022-07-30T04:05:55.411Z,13.23
2022-07-30T04:08:22.087Z,14.75
2022-07-30T04:10:49.602Z,16.02
2022-07-30T04:13:16.281Z,19.83
2022-07-30T04:16:36.916Z,17.23
2022-07-30T04:18:47.627Z,16.77
2022-07-30T04:21:18.071Z,16.17
2022-07-30T04:24:02.278Z,16.08
2022-07-30T04:26:33.701Z,21.85
2022-07-30T04:29:01.155Z,16.52
2022-07-30T04:31:28.945Z,15.23
2022-07-30T04:33:55.611Z,13.02
2022-07-30T04:36:30.756Z,15.88
2022-07-30T04:38:58.238Z,15.60
2022-07-30T04:41:25.482Z,17.98
2022-07-30T04:43:52.724Z,18.40
2022-07-30T04:46:19.266Z,18.20
2022-07-30T04:48:48.141Z,18.40
2022-07-30T04:51:24.216Z,14.77
2022-07-30T04:53:52.360Z,14.32
2022-07-30T04:56:21.079Z,12.93
2022-07-30T04:58:48.220Z,13.97
2022-07-30T05:01:40.907Z,15.80
2022-07-30T05:04:10.618Z,16.92
2022-07-30T05:06:37.992Z,13.57
2022-07-30T05:09:04.706Z,12.90
2022-07-30T05:11:31.266Z,15.70
2022-07-30T05:13:58.122Z,16.38
2022-07-30T05:16:24.990Z,15.60
2022-07-30T05:18:51.781Z,12.73
2022-07-30T05:21:18.413Z,14.45
2022-07-30T05:23:50.199Z,15.18
2022-07-30T05:26:21.287Z,15.95
2022-07-30T05:28:53.637Z,15.30
2022-07-30T05:31:22.107Z,23.48
2022-07-30T05:33:49.103Z,27.23
2022-07-30T05:36:15.703Z,25.05
2022-07-30T05:38:42.209Z,25.38
2022-07-30T05:41:30.816Z,19.27
2022-07-30T05:43:55.756Z,19.83
2022-07-30T05:46:23.241Z,18.23
2022-07-30T05:48:49.915Z,15.43
2022-07-30T05:51:16.925Z,22.77
2022-07-30T05:53:43.413Z,27.90
2022-07-30T05:56:09.879Z,26.70
2022-07-30T05:58:36.541Z,35.15
2022-07-30T06:01:03.027Z,30.75
2022-07-30T06:03:29.527Z,25.92
2022-07-30T06:05:56.129Z,47.08
2022-07-30T06:08:22.769Z,35.00
2022-07-30T06:10:49.270Z,36.33
2022-07-30T06:13:15.729Z,20.75
2022-07-30T06:15:42.314Z,20.20
2022-07-30T06:18:08.824Z,19.60
2022-07-30T06:20:35.311Z,23.25
2022-07-30T06:23:01.936Z,22.27
2022-07-30T06:25:28.471Z,19.65
2022-07-30T06:27:55.030Z,19.92
2022-07-30T06:30:21.562Z,27.02
2022-07-30T06:32:57.632Z,22.35
2022-07-30T06:35:24.106Z,27.80
2022-07-30T06:38:05.680Z,24.08
2022-07-30T06:40:34.562Z,27.05
2022-07-30T06:43:01.067Z,26.42
2022-07-30T06:45:27.650Z,26.02
2022-07-30T06:47:58.736Z,28.42
2022-07-30T06:50:25.902Z,28.17
2022-07-30T06:52:52.639Z,28.80
2022-07-30T06:55:19.250Z,28.45
2022-07-30T06:57:45.754Z,28.65
2022-07-30T07:00:12.987Z,32.65
2022-07-30T07:02:39.532Z,26.17
2022-07-30T07:05:07.383Z,29.55
2022-07-30T07:07:42.348Z,31.02
2022-07-30T07:10:13.096Z,31.67
2022-07-30T07:12:39.594Z,28.02
2022-07-30T07:15:06.752Z,30.95
2022-07-30T07:17:33.257Z,27.38
2022-07-30T07:20:02.581Z,29.75
2022-07-30T07:22:29.671Z,33.15
2022-07-30T07:24:56.348Z,34.45
2022-07-30T07:27:22.879Z,32.25
2022-07-30T07:30:05.133Z,36.45
2022-07-30T07:32:33.622Z,28.77
2022-07-30T07:35:00.161Z,32.38
2022-07-30T07:37:27.024Z,31.60
2022-07-30T07:39:53.666Z,32.97
2022-07-30T07:42:20.181Z,27.58
2022-07-30T07:44:46.633Z,29.85
2022-07-30T07:47:13.154Z,28.20
2022-07-30T07:49:39.665Z,28.17
2022-07-30T07:52:06.622Z,26.33
2022-07-30T07:54:33.289Z,26.23
2022-07-30T07:57:03.253Z,20.60
2022-07-30T07:59:40.041Z,22.70
2022-07-30T08:02:08.084Z,22.77
2022-07-30T08:04:35.401Z,25.05
2022-07-30T08:07:02.402Z,23.67
2022-07-30T08:09:40.599Z,23.55
2022-07-30T08:12:11.415Z,22.42
2022-07-30T08:14:37.916Z,25.98
2022-07-30T08:17:04.728Z,23.92
2022-07-30T08:19:31.464Z,24.88
2022-07-30T08:21:59.611Z,28.92
2022-07-30T08:24:26.853Z,26.77
2022-07-30T08:26:53.618Z,22.38
2022-07-30T08:29:20.175Z,27.95
2022-07-30T08:31:46.753Z,27.42
2022-07-30T08:34:13.710Z,26.42
2022-07-30T08:36:40.798Z,26.27
2022-07-30T08:39:07.419Z,21.85
2022-07-30T08:41:38.940Z,23.25
2022-07-30T08:44:12.749Z,23.77
2022-07-30T08:46:47.025Z,19.23
2022-07-30T08:49:16.352Z,17.00
2022-07-30T08:51:44.215Z,19.15
2022-07-30T08:54:13.027Z,21.52
2022-07-30T08:56:41.014Z,21.17
2022-07-30T08:59:17.486Z,17.52
2022-07-30T09:01:44.126Z,19.67
2022-07-30T09:04:10.665Z,17.58
2022-07-30T09:06:37.704Z,19.65
2022-07-30T09:09:04.267Z,17.70
2022-07-30T09:11:34.794Z,16.00
2022-07-30T09:14:14.829Z,14.50
2022-07-30T09:16:42.033Z,16.60
2022-07-30T09:19:17.438Z,16.42
2022-07-30T09:21:58.536Z,13.68
2022-07-30T09:24:25.669Z,14.73
2022-07-30T09:27:07.227Z,21.73
2022-07-30T09:29:34.737Z,12.63
2022-07-30T09:32:09.427Z,16.00
2022-07-30T09:34:38.433Z,16.00
2022-07-30T09:37:17.566Z,14.98
2022-07-30T09:39:59.319Z,12.13
2022-07-30T09:42:28.804Z,15.48
2022-07-30T09:45:09.825Z,13.32
2022-07-30T09:47:42.138Z,12.07
2022-07-30T09:50:11.293Z,18.10
2022-07-30T09:52:44.037Z,21.42
2022-07-30T09:55:28.522Z,16.15
2022-07-30T09:57:58.866Z,15.10
2022-07-30T10:00:27.430Z,9.55
2022-07-30T10:02:58.172Z,14.73
2022-07-30T10:05:25.839Z,10.90
2022-07-30T10:07:54.773Z,12.73
2022-07-30T10:10:31.164Z,13.57
2022-07-30T10:13:04.240Z,12.38
2022-07-30T10:15:34.691Z,12.02
2022-07-30T10:18:06.345Z,11.77
2022-07-30T10:20:33.681Z,10.40
2022-07-30T10:23:08.345Z,11.60
2022-07-30T10:25:37.179Z,12.20
2022-07-30T10:28:17.658Z,9.75
2022-07-30T10:30:45.291Z,11.00
2022-07-30T10:33:36.547Z,15.98
2022-07-30T10:35:59.180Z,12.05
2022-07-30T10:38:30.224Z,10.07
2022-07-30T10:41:02.687Z,10.07
2022-07-30T10:44:04.834Z,7.75
2022-07-30T10:46:43.531Z,11.50
2022-07-30T10:49:18.595Z,5.95
2022-07-30T10:51:50.956Z,7.38
2022-07-30T10:54:36.523Z,6.28
2022-07-30T10:57:14.974Z,11.93
2022-07-30T11:00:03.732Z,12.38
2022-07-30T11:02:35.503Z,11.23
2022-07-30T11:05:17.795Z,9.23
2022-07-30T11:07:47.623Z,7.13
2022-07-30T11:10:44.081Z,10.00
2022-07-30T11:13:10.817Z,6.65
2022-07-30T11:15:56.947Z,11.38
2022-07-30T11:18:28.658Z,5.30
2022-07-30T11:21:16.553Z,8.02
2022-07-30T11:23:45.709Z,9.77
2022-07-30T11:28:58.806Z,5.30
2022-07-30T11:31:54.848Z,8.90
2022-07-30T11:34:24.152Z,10.07
2022-07-30T11:37:22.480Z,5.07
2022-07-30T11:40:02.247Z,8.20
2022-07-30T11:42:34.971Z,8.23
2022-07-30T11:45:16.685Z,6.07
2022-07-30T11:47:49.043Z,7.95
2022-07-30T11:50:20.185Z,4.70
2022-07-30T11:53:03.071Z,8.13
2022-07-30T11:55:42.588Z,7.80
2022-07-30T11:58:29.351Z,8.20
2022-07-30T12:00:58.278Z,9.68
2022-07-30T12:03:29.874Z,5.00
2022-07-30T12:05:56.795Z,8.55
2022-07-30T12:08:35.356Z,4.45
2022-07-30T12:11:03.104Z,7.20
2022-07-30T12:13:44.471Z,8.05
2022-07-30T12:16:17.453Z,5.93
2022-07-30T12:18:45.498Z,9.45
2022-07-30T12:21:12.850Z,8.90
2022-07-30T12:23:42.036Z,5.63
2022-07-30T12:28:36.273Z,7.70
2022-07-30T12:31:04.428Z,4.68
2022-07-30T12:33:31.545Z,5.73
2022-07-30T12:36:00.268Z,6.60
2022-07-30T12:38:28.411Z,12.88
2022-07-30T12:40:54.855Z,5.73
2022-07-30T12:43:44.007Z,5.00
2022-07-30T12:46:15.028Z,3.78
2022-07-30T12:48:56.103Z,7.80
2022-07-30T12:51:29.074Z,6.75
2022-07-30T12:53:57.095Z,4.55
2022-07-30T12:56:26.664Z,5.57
2022-07-30T12:58:54.842Z,4.13
2022-07-30T13:01:42.516Z,7.07
2022-07-30T13:04:10.429Z,7.32
2022-07-30T13:06:38.182Z,5.32
2022-07-30T13:09:05.499Z,5.47
2022-07-30T13:11:41.377Z,8.65
2022-07-30T13:14:09.256Z,3.08
2022-07-30T13:16:37.223Z,7.20
2022-07-30T13:19:06.201Z,7.95
2022-07-30T13:21:35.827Z,6.65
2022-07-30T13:24:02.754Z,7.38
2022-07-30T13:26:30.090Z,7.70
2022-07-30T13:29:01.653Z,4.07
2022-07-30T13:31:28.822Z,5.10
2022-07-30T13:34:12.288Z,3.08
2022-07-30T13:39:05.718Z,4.10
2022-07-30T13:41:33.261Z,10.23
2022-07-30T13:44:00.985Z,9.50
2022-07-30T13:46:29.345Z,5.00
2022-07-30T13:48:56.682Z,9.30
2022-07-30T13:51:23.442Z,8.98
2022-07-30T13:53:50.220Z,5.85
2022-07-30T13:56:16.939Z,4.90
2022-07-30T13:58:46.454Z,4.00
2022-07-30T14:01:17.682Z,4.40
2022-07-30T14:03:49.889Z,3.38
2022-07-30T14:06:17.125Z,8.68
2022-07-30T14:08:45.796Z,6.93
2022-07-30T14:11:13.136Z,4.72
2022-07-30T14:13:48.390Z,5.90
2022-07-30T14:16:43.749Z,4.40
2022-07-30T14:19:05.701Z,9.77
2022-07-30T14:21:35.583Z,5.18
2022-07-30T14:24:05.656Z,10.65
2022-07-30T14:26:36.897Z,4.05
2022-07-30T14:29:07.160Z,4.10
2022-07-30T14:31:35.055Z,5.43
2022-07-30T14:34:02.659Z,2.88
2022-07-30T14:36:30.197Z,4.47
2022-07-30T14:38:58.098Z,9.40
2022-07-30T14:41:25.911Z,6.72
2022-07-30T14:43:53.520Z,8.77
2022-07-30T14:46:20.872Z,4.50
2022-07-30T14:48:47.797Z,7.78
2022-07-30T14:51:20.727Z,3.85
2022-07-30T14:53:52.180Z,3.40
2022-07-30T14:56:19.392Z,5.50
2022-07-30T14:58:46.222Z,9.43
2022-07-30T15:01:15.669Z,6.72
2022-07-30T15:03:44.089Z,7.57
2022-07-30T15:06:12.599Z,5.40
2022-07-30T15:08:39.314Z,7.78
2022-07-30T15:11:07.855Z,5.55
2022-07-30T15:13:36.362Z,5.30
2022-07-30T15:16:03.126Z,6.00
2022-07-30T15:18:29.856Z,5.75
2022-07-30T15:20:56.460Z,5.82
2022-07-30T15:23:23.203Z,6.72
2022-07-30T15:25:49.864Z,5.28
2022-07-30T15:28:16.577Z,3.83
2022-07-30T15:30:43.360Z,3.75
2022-07-30T15:33:09.836Z,6.13
2022-07-30T15:35:36.609Z,6.28
2022-07-30T15:38:03.642Z,8.13
2022-07-30T15:40:30.564Z,5.72
2022-07-30T15:42:57.098Z,3.20
2022-07-30T15:45:24.709Z,5.60
2022-07-30T15:47:51.859Z,6.38
2022-07-30T15:50:18.562Z,3.22
2022-07-30T15:52:45.281Z,8.77
2022-07-30T15:55:13.160Z,4.03
2022-07-30T15:57:40.802Z,14.50
2022-07-30T16:00:10.377Z,3.97
2022-07-30T16:02:37.896Z,6.88
2022-07-30T16:05:05.116Z,2.90
2022-07-30T16:07:31.640Z,3.33
2022-07-30T16:09:58.172Z,3.75
2022-07-30T16:12:24.909Z,6.13
2022-07-30T16:14:52.054Z,4.90
2022-07-30T16:17:18.792Z,2.75
2022-07-30T16:19:45.373Z,4.03
2022-07-30T16:22:15.034Z,4.93
2022-07-30T16:24:50.548Z,7.57
2022-07-30T16:27:17.174Z,5.72
2022-07-30T16:29:43.751Z,4.55
2022-07-30T16:32:10.429Z,4.25
2022-07-30T16:34:37.045Z,3.95
2022-07-30T16:37:04.342Z,4.55
2022-07-30T16:39:31.120Z,5.30
2022-07-30T16:41:57.661Z,5.38
2022-07-30T16:44:24.109Z,3.35
2022-07-30T16:46:50.607Z,3.85
2022-07-30T16:49:17.243Z,6.93
2022-07-30T16:51:44.031Z,4.93
2022-07-30T16:54:11.562Z,6.05
2022-07-30T16:56:38.041Z,9.90
2022-07-30T16:59:04.574Z,6.40
2022-07-30T17:01:32.218Z,6.90
2022-07-30T17:03:59.504Z,5.55
2022-07-30T17:06:26.252Z,2.08
2022-07-30T17:08:52.710Z,4.25
2022-07-30T17:11:47.780Z,4.07
2022-07-30T17:14:06.128Z,5.32
2022-07-30T17:16:32.672Z,4.88
2022-07-30T17:18:59.287Z,3.13
2022-07-30T17:21:26.024Z,2.70
2022-07-30T17:23:52.618Z,3.30
2022-07-30T17:26:19.162Z,2.70
2022-07-30T17:28:45.656Z,3.38
2022-07-30T17:31:12.629Z,5.55
2022-07-30T17:33:39.171Z,2.40
2022-07-30T17:36:08.424Z,4.88
2022-07-30T17:41:02.336Z,2.88
2022-07-30T17:43:28.907Z,3.60
2022-07-30T17:45:55.462Z,8.07
2022-07-30T17:48:21.985Z,1.75
2022-07-30T17:50:48.727Z,3.20
2022-07-30T17:53:15.231Z,4.85
2022-07-30T17:55:41.986Z,3.20
2022-07-30T17:58:24.515Z,8.77
2022-07-30T18:00:51.153Z,2.50
2022-07-30T18:03:17.890Z,3.97
2022-07-30T18:05:44.558Z,3.00
2022-07-30T18:08:11.135Z,2.90
2022-07-30T18:10:37.677Z,2.58
2022-07-30T18:13:26.022Z,2.95
2022-07-30T18:15:50.935Z,4.00
2022-07-30T18:18:17.408Z,7.15
2022-07-30T18:20:48.382Z,4.25
2022-07-30T18:23:19.660Z,4.68
2022-07-30T18:25:51.566Z,2.78
2022-07-30T18:28:18.644Z,5.43
2022-07-30T18:30:45.224Z,4.63
2022-07-30T18:33:11.806Z,1.88
2022-07-30T18:35:38.537Z,2.00
2022-07-30T18:38:05.349Z,2.55
2022-07-30T18:40:32.312Z,3.10
2022-07-30T18:42:59.495Z,6.22
2022-07-30T18:45:28.629Z,1.52
2022-07-30T18:47:55.976Z,4.47
2022-07-30T18:50:24.103Z,2.42
2022-07-30T18:52:51.194Z,6.72
2022-07-30T18:55:20.813Z,3.10
2022-07-30T18:57:47.949Z,1.85
2022-07-30T19:00:34.464Z,4.95
2022-07-30T19:03:02.109Z,3.00
2022-07-30T19:05:29.129Z,2.83
2022-07-30T19:07:57.909Z,5.03
2022-07-30T19:10:26.384Z,2.60
2022-07-30T19:12:53.869Z,2.22
2022-07-30T19:15:20.754Z,6.07
2022-07-30T19:17:48.954Z,1.80
2022-07-30T19:20:15.707Z,4.47
2022-07-30T19:22:42.328Z,2.17
2022-07-30T19:25:10.425Z,3.42
2022-07-30T19:27:37.305Z,5.72
2022-07-30T19:30:04.734Z,3.17
2022-07-30T19:32:31.514Z,2.00
2022-07-30T19:34:58.142Z,4.53
2022-07-30T19:37:24.616Z,3.88
2022-07-30T19:39:58.878Z,3.60
2022-07-30T19:42:41.296Z,2.85
2022-07-30T19:45:11.753Z,2.35
2022-07-30T19:47:39.607Z,5.93
2022-07-30T19:50:10.316Z,2.38
2022-07-30T19:52:38.279Z,4.30
2022-07-30T19:55:30.515Z,2.30
2022-07-30T19:57:54.183Z,1.60
2022-07-30T20:00:25.013Z,1.52
2022-07-30T20:02:52.861Z,1.48
2022-07-30T20:05:20.049Z,2.90
2022-07-30T20:07:47.675Z,1.75
2022-07-30T20:10:15.734Z,1.17
2022-07-30T20:12:42.764Z,3.65
2022-07-30T20:15:16.344Z,5.20
2022-07-30T20:17:43.072Z,2.80
2022-07-30T20:20:10.424Z,2.47
2022-07-30T20:22:37.083Z,1.67
2022-07-30T20:25:06.222Z,3.25
2022-07-30T20:30:05.792Z,1.90
2022-07-30T20:32:32.282Z,3.08
2022-07-30T20:34:58.850Z,2.53
2022-07-30T20:37:27.359Z,3.88
2022-07-30T20:39:54.869Z,1.77
2022-07-30T20:42:23.859Z,5.88
2022-07-30T20:44:53.213Z,3.17
2022-07-30T20:47:34.910Z,2.60
2022-07-30T20:50:10.421Z,2.22
2022-07-30T20:52:40.124Z,9.90
2022-07-30T20:55:14.442Z,2.55
2022-07-30T20:57:57.285Z,3.58
2022-07-30T21:00:30.160Z,2.00
2022-07-30T21:02:56.653Z,2.70
2022-07-30T21:05:23.366Z,2.97
2022-07-30T21:07:55.033Z,2.50
2022-07-30T21:10:23.727Z,2.67
2022-07-30T21:12:53.340Z,5.35
2022-07-30T21:15:26.332Z,3.28
2022-07-30T21:17:53.056Z,5.00
2022-07-30T21:20:27.705Z,3.35
2022-07-30T21:22:55.571Z,3.03
2022-07-30T21:25:23.473Z,2.00
2022-07-30T21:28:02.880Z,1.75
2022-07-30T21:30:31.110Z,1.73
2022-07-30T21:32:58.161Z,2.90
2022-07-30T21:35:25.006Z,2.42
2022-07-30T21:37:58.354Z,3.30
2022-07-30T21:40:25.031Z,3.60
2022-07-30T21:42:51.690Z,2.72
2022-07-30T21:45:19.425Z,2.97
2022-07-30T21:47:47.955Z,4.43
2022-07-30T21:50:15.954Z,3.63
2022-07-30T21:52:43.756Z,5.85
2022-07-30T21:55:13.377Z,2.67
2022-07-30T21:57:40.292Z,3.15
2022-07-30T22:00:14.890Z,2.45
2022-07-30T22:02:53.035Z,2.78
2022-07-30T22:05:21.694Z,1.77
2022-07-30T22:07:50.036Z,4.53
2022-07-30T22:10:21.343Z,2.88
2022-07-30T22:12:48.588Z,1.95
2022-07-30T22:15:15.323Z,4.65
2022-07-30T22:17:58.706Z,5.45
2022-07-30T22:20:28.671Z,3.70
2022-07-30T22:22:56.848Z,5.32
2022-07-30T22:25:23.688Z,6.07
2022-07-30T22:28:08.194Z,2.60
2022-07-30T22:30:34.709Z,7.82
2022-07-30T22:33:09.093Z,2.42
2022-07-30T22:35:36.720Z,3.53
2022-07-30T22:38:06.642Z,1.65
2022-07-30T22:40:33.787Z,2.67
2022-07-30T22:43:04.092Z,3.75
2022-07-30T22:45:45.778Z,5.15
2022-07-30T22:48:16.345Z,3.88
2022-07-30T22:50:42.898Z,2.67
2022-07-30T22:53:56.892Z,5.60
2022-07-30T22:55:56.452Z,3.40
2022-07-30T22:58:26.123Z,1.95
2022-07-30T23:00:53.165Z,3.25
2022-07-30T23:03:19.761Z,4.05
2022-07-30T23:05:56.189Z,3.70
2022-07-30T23:08:30.105Z,5.13
2022-07-30T23:10:59.776Z,4.93
2022-07-30T23:13:27.219Z,5.55
2022-07-30T23:15:53.931Z,2.00
2022-07-30T23:18:20.654Z,5.38
2022-07-30T23:20:47.169Z,1.73
2022-07-30T23:23:13.631Z,4.63
2022-07-30T23:25:40.588Z,5.28
2022-07-30T23:28:07.150Z,6.32
2022-07-30T23:30:34.429Z,8.50
2022-07-30T23:33:01.644Z,3.08
2022-07-30T23:35:28.123Z,4.68
2022-07-30T23:37:54.665Z,5.18
2022-07-30T23:40:21.274Z,3.85
2022-07-30T23:42:50.147Z,2.60
2022-07-30T23:45:17.647Z,3.70
2022-07-30T23:47:54.624Z,2.78
2022-07-30T23:50:30.077Z,3.88
2022-07-30T23:52:56.902Z,6.85
2022-07-30T23:55:23.589Z,5.18
2022-07-30T23:57:50.165Z,3.15
